createdAt,value
2018-08-19T00:00:47.559Z,10.93
2018-08-19T00:03:52.134Z,11.47
2018-08-19T00:06:56.526Z,12.20
2018-08-19T00:10:00.768Z,12.50
2018-08-19T00:13:06.974Z,12.83
2018-08-19T00:16:11.790Z,13.73
2018-08-19T00:19:16.017Z,15.20
2018-08-19T00:22:20.261Z,11.43
2018-08-19T00:25:42.539Z,20.33
2018-08-19T00:28:46.716Z,9.50
2018-08-19T00:31:51.676Z,8.80
2018-08-19T00:34:55.913Z,13.00
2018-08-19T00:38:00.552Z,12.27
2018-08-19T00:41:04.797Z,10.93
2018-08-19T00:44:09.054Z,13.07
2018-08-19T00:47:13.273Z,10.00
2018-08-19T00:50:17.549Z,9.17
2018-08-19T00:53:21.809Z,10.50
2018-08-19T00:56:26.052Z,8.70
2018-08-19T00:59:31.528Z,9.60
2018-08-19T01:02:35.876Z,7.80
2018-08-19T01:05:40.233Z,10.40
2018-08-19T01:08:44.470Z,7.80
2018-08-19T01:11:48.699Z,11.03
2018-08-19T01:14:52.903Z,8.83
2018-08-19T01:17:57.872Z,11.20
2018-08-19T01:21:10.719Z,10.53
2018-08-19T01:24:14.957Z,8.53
2018-08-19T01:27:19.209Z,12.63
2018-08-19T01:30:27.057Z,10.13
2018-08-19T01:33:31.281Z,10.03
2018-08-19T01:36:35.524Z,15.90
2018-08-19T01:39:39.949Z,8.43
2018-08-19T01:42:44.214Z,10.90
2018-08-19T01:45:48.460Z,10.20
2018-08-19T01:48:53.126Z,14.47
2018-08-19T01:51:57.634Z,11.63
2018-08-19T01:55:01.861Z,7.97
2018-08-19T01:58:06.269Z,20.07
2018-08-19T02:01:10.504Z,14.00
2018-08-19T02:04:14.757Z,15.50
2018-08-19T02:07:19.004Z,12.83
2018-08-19T02:10:24.446Z,14.97
2018-08-19T02:13:28.684Z,8.40
2018-08-19T02:16:32.954Z,12.77
2018-08-19T02:19:37.157Z,12.67
2018-08-19T02:22:45.925Z,11.03
2018-08-19T02:25:50.165Z,12.27
2018-08-19T02:28:54.405Z,10.50
2018-08-19T02:32:05.404Z,9.97
2018-08-19T02:35:09.624Z,11.73
2018-08-19T02:38:13.980Z,11.33
2018-08-19T02:41:18.222Z,8.83
2018-08-19T02:44:22.488Z,9.97
2018-08-19T02:47:26.718Z,11.87
2018-08-19T02:50:30.969Z,11.57
2018-08-19T02:53:35.233Z,10.57
2018-08-19T02:56:39.600Z,9.90
2018-08-19T02:59:43.861Z,11.17
2018-08-19T03:02:48.077Z,7.87
2018-08-19T03:05:56.933Z,12.00
2018-08-19T03:09:01.153Z,7.67
2018-08-19T03:12:10.244Z,9.77
2018-08-19T03:15:15.557Z,10.93
2018-08-19T03:18:19.810Z,8.20
2018-08-19T03:21:24.049Z,11.07
2018-08-19T03:24:28.333Z,9.97
2018-08-19T03:27:33.644Z,9.33
2018-08-19T03:30:38.066Z,10.57
2018-08-19T03:33:42.292Z,9.03
2018-08-19T03:36:46.530Z,10.97
2018-08-19T03:39:50.760Z,10.00
2018-08-19T03:42:55.344Z,15.30
2018-08-19T03:46:07.137Z,8.47
2018-08-19T03:49:11.390Z,9.53
2018-08-19T03:52:16.254Z,6.73
2018-08-19T03:55:28.780Z,10.77
2018-08-19T03:58:33.029Z,6.47
2018-08-19T04:01:44.335Z,9.67
2018-08-19T04:04:49.217Z,9.37
2018-08-19T04:07:53.441Z,10.03
2018-08-19T04:10:57.709Z,12.40
2018-08-19T04:14:01.929Z,13.90
2018-08-19T04:17:07.421Z,13.33
2018-08-19T04:20:11.648Z,11.23
2018-08-19T04:23:15.901Z,11.33
2018-08-19T04:26:20.113Z,12.47
2018-08-19T04:29:24.694Z,17.40
2018-08-19T04:32:31.168Z,16.97
2018-08-19T04:35:35.408Z,12.53
2018-08-19T04:38:39.637Z,13.37
2018-08-19T04:41:43.871Z,12.33
2018-08-19T04:44:48.117Z,16.97
2018-08-19T04:47:52.344Z,11.17
2018-08-19T04:50:57.290Z,12.87
2018-08-19T04:54:05.708Z,20.20
2018-08-19T04:57:09.988Z,18.13
2018-08-19T05:00:14.221Z,11.87
2018-08-19T05:03:18.481Z,13.73
2018-08-19T05:06:22.721Z,19.27
2018-08-19T05:09:27.013Z,17.50
2018-08-19T05:12:31.270Z,16.90
2018-08-19T05:15:35.616Z,13.13
2018-08-19T05:18:39.809Z,15.03
2018-08-19T05:21:44.073Z,16.50
2018-08-19T05:24:48.335Z,16.80
2018-08-19T05:27:57.969Z,17.83
2018-08-19T05:31:02.222Z,19.87
2018-08-19T05:34:07.101Z,16.53
2018-08-19T05:37:11.337Z,14.57
2018-08-19T05:40:15.587Z,15.80
2018-08-19T05:43:19.810Z,15.17
2018-08-19T05:46:24.080Z,13.07
2018-08-19T05:49:28.381Z,16.90
2018-08-19T05:52:32.617Z,19.43
2018-08-19T05:55:36.875Z,18.23
2018-08-19T05:58:41.068Z,13.93
2018-08-19T06:01:45.314Z,18.07
2018-08-19T06:04:49.641Z,14.10
2018-08-19T06:07:59.290Z,16.40
2018-08-19T06:11:03.554Z,18.03
2018-08-19T06:14:07.806Z,15.97
2018-08-19T06:17:12.082Z,12.20
2018-08-19T06:20:16.329Z,12.80
2018-08-19T06:23:22.096Z,11.47
2018-08-19T06:26:30.773Z,16.93
2018-08-19T06:29:47.793Z,13.73
2018-08-19T06:32:52.112Z,13.97
2018-08-19T06:35:56.352Z,14.90
2018-08-19T06:39:00.586Z,16.63
2018-08-19T06:42:04.840Z,14.27
2018-08-19T06:45:10.265Z,12.60
2018-08-19T06:48:14.522Z,14.03
2018-08-19T06:51:18.941Z,14.63
2018-08-19T06:54:23.024Z,18.70
2018-08-19T06:57:29.730Z,13.77
2018-08-19T07:00:34.002Z,15.47
2018-08-19T07:03:41.599Z,8.50
2018-08-19T07:06:46.049Z,10.80
2018-08-19T07:09:50.339Z,17.50
2018-08-19T07:13:00.760Z,8.37
2018-08-19T07:16:09.756Z,13.03
2018-08-19T07:19:14.037Z,11.80
2018-08-19T07:22:20.246Z,15.77
2018-08-19T07:25:24.515Z,13.87
2018-08-19T07:28:29.788Z,15.20
2018-08-19T07:31:34.033Z,12.53
2018-08-19T07:34:38.389Z,10.97
2018-08-19T07:37:43.026Z,11.17
2018-08-19T07:40:47.416Z,13.67
2018-08-19T07:43:51.757Z,12.93
2018-08-19T07:46:56.056Z,10.07
2018-08-19T07:50:00.426Z,11.50
2018-08-19T07:53:04.728Z,11.73
2018-08-19T07:56:09.095Z,10.83
2018-08-19T07:59:15.090Z,9.50
2018-08-19T08:02:19.566Z,7.70
2018-08-19T08:05:24.828Z,11.80
2018-08-19T08:08:29.157Z,9.07
2018-08-19T08:11:33.606Z,11.77
2018-08-19T08:14:38.766Z,9.60
2018-08-19T08:17:43.132Z,12.63
2018-08-19T08:20:47.449Z,9.57
2018-08-19T08:23:51.984Z,9.07
2018-08-19T08:26:56.356Z,10.27
2018-08-19T08:30:05.041Z,10.43
2018-08-19T08:33:09.369Z,10.30
2018-08-19T08:36:13.894Z,13.60
2018-08-19T08:39:18.192Z,11.10
2018-08-19T08:42:23.583Z,10.00
2018-08-19T08:45:32.851Z,9.57
2018-08-19T08:48:37.878Z,13.95
2018-08-19T08:51:42.324Z,9.57
2018-08-19T08:54:50.649Z,10.17
2018-08-19T08:57:55.912Z,10.83
2018-08-19T09:01:01.032Z,9.43
2018-08-19T09:04:05.356Z,15.57
2018-08-19T09:07:10.209Z,11.80
2018-08-19T09:10:14.837Z,9.77
2018-08-19T09:13:19.212Z,10.87
2018-08-19T09:16:23.510Z,10.87
2018-08-19T09:19:28.349Z,17.57
2018-08-19T09:22:32.716Z,12.40
2018-08-19T09:25:37.081Z,10.97
2018-08-19T09:28:41.358Z,11.63
2018-08-19T09:31:45.795Z,8.50
2018-08-19T09:34:50.299Z,10.13
2018-08-19T09:38:01.507Z,9.13
2018-08-19T09:41:07.138Z,9.90
2018-08-19T09:44:11.588Z,10.83
2018-08-19T09:47:17.004Z,11.53
2018-08-19T09:50:22.740Z,9.27
2018-08-19T09:53:27.158Z,9.90
2018-08-19T09:56:36.737Z,13.90
2018-08-19T09:59:41.166Z,10.47
2018-08-19T10:02:49.880Z,11.07
2018-08-19T10:05:55.334Z,10.50
2018-08-19T10:08:59.842Z,8.27
2018-08-19T10:12:04.236Z,10.83
2018-08-19T10:15:08.673Z,8.90
2018-08-19T10:18:13.161Z,7.37
2018-08-19T10:21:19.155Z,9.20
2018-08-19T10:24:29.110Z,9.90
2018-08-19T10:27:33.341Z,8.83
2018-08-19T10:30:47.190Z,15.30
2018-08-19T10:33:52.199Z,12.43
2018-08-19T10:36:57.174Z,10.07
2018-08-19T10:40:01.512Z,8.43
2018-08-19T10:43:08.761Z,7.30
2018-08-19T10:46:13.092Z,7.30
2018-08-19T10:49:17.324Z,8.70
2018-08-19T10:52:26.124Z,13.00
2018-08-19T10:55:30.541Z,10.87
2018-08-19T10:58:34.815Z,10.23
2018-08-19T11:01:39.164Z,11.47
2018-08-19T11:04:43.516Z,9.70
2018-08-19T11:07:47.725Z,10.33
2018-08-19T11:10:52.024Z,11.83
2018-08-19T11:13:56.311Z,9.43
2018-08-19T11:17:00.582Z,11.73
2018-08-19T11:20:04.880Z,10.53
2018-08-19T11:23:15.310Z,13.90
2018-08-19T11:26:20.272Z,9.20
2018-08-19T11:29:25.269Z,10.10
2018-08-19T11:32:37.473Z,10.37
2018-08-19T11:35:47.592Z,11.87
2018-08-19T11:38:53.473Z,9.80
2018-08-19T11:41:59.648Z,11.80
2018-08-19T11:45:09.017Z,10.73
2018-08-19T11:48:13.478Z,12.87
2018-08-19T11:51:18.082Z,11.97
2018-08-19T11:54:23.425Z,7.07
2018-08-19T11:57:28.695Z,11.13
2018-08-19T12:00:38.640Z,7.70
2018-08-19T12:04:01.365Z,9.50
2018-08-19T12:07:06.393Z,9.53
2018-08-19T12:10:10.638Z,11.67
2018-08-19T12:13:14.870Z,8.13
2018-08-19T12:16:19.977Z,8.07
2018-08-19T12:19:31.753Z,8.87
2018-08-19T12:22:36.017Z,8.03
2018-08-19T12:25:40.230Z,15.00
2018-08-19T12:28:44.479Z,11.80
2018-08-19T12:31:49.697Z,8.83
2018-08-19T12:34:55.286Z,10.07
2018-08-19T12:37:59.524Z,9.70
2018-08-19T12:41:05.186Z,11.33
2018-08-19T12:44:09.446Z,11.47
2018-08-19T12:47:18.333Z,10.10
2018-08-19T12:50:22.643Z,8.80
2018-08-19T12:53:26.821Z,8.00
2018-08-19T12:56:31.094Z,12.30
2018-08-19T12:59:35.861Z,12.20
2018-08-19T13:02:43.244Z,8.27
2018-08-19T13:06:00.920Z,8.50
2018-08-19T13:09:07.580Z,6.70
2018-08-19T13:12:13.012Z,9.67
2018-08-19T13:15:17.240Z,11.27
2018-08-19T13:18:28.509Z,11.90
2018-08-19T13:21:32.761Z,9.07
2018-08-19T13:24:39.002Z,11.57
2018-08-19T13:27:43.217Z,8.77
2018-08-19T13:30:47.472Z,9.47
2018-08-19T13:33:51.723Z,11.17
2018-08-19T13:36:56.481Z,11.47
2018-08-19T13:40:00.709Z,10.00
2018-08-19T13:43:05.300Z,12.43
2018-08-19T13:46:09.523Z,12.83
2018-08-19T13:49:13.791Z,11.63
2018-08-19T13:52:18.042Z,10.67
2018-08-19T13:55:22.289Z,14.57
2018-08-19T13:58:26.489Z,11.70
2018-08-19T14:01:30.742Z,15.60
2018-08-19T14:04:34.956Z,13.07
2018-08-19T14:07:39.193Z,13.37
2018-08-19T14:10:43.437Z,10.10
2018-08-19T14:13:47.670Z,12.43
2018-08-19T14:16:51.904Z,10.33
2018-08-19T14:19:56.138Z,11.43
2018-08-19T14:23:00.392Z,12.47
2018-08-19T14:26:04.643Z,9.00
2018-08-19T14:29:08.924Z,11.17
2018-08-19T14:32:45.573Z,12.43
2018-08-19T14:35:49.913Z,13.33
2018-08-19T14:38:54.162Z,14.23
2018-08-19T14:41:58.397Z,12.83
2018-08-19T14:45:02.686Z,13.23
2018-08-19T14:48:07.087Z,12.40
2018-08-19T14:51:11.334Z,13.10
2018-08-19T14:54:18.889Z,12.80
2018-08-19T14:57:23.225Z,10.93
2018-08-19T15:00:27.463Z,11.80
2018-08-19T15:03:32.129Z,11.77
2018-08-19T15:06:36.369Z,9.67
2018-08-19T15:09:40.615Z,11.67
2018-08-19T15:12:44.833Z,12.13
2018-08-19T15:15:49.041Z,9.50
2018-08-19T15:18:53.238Z,10.80
2018-08-19T15:21:57.579Z,9.13
2018-08-19T15:25:01.842Z,10.90
2018-08-19T15:28:06.072Z,9.40
2018-08-19T15:31:14.364Z,10.40
2018-08-19T15:34:19.265Z,10.20
2018-08-19T15:37:23.489Z,9.70
2018-08-19T15:40:43.516Z,10.90
2018-08-19T15:43:47.750Z,11.10
2018-08-19T15:46:52.006Z,9.23
2018-08-19T15:50:13.347Z,8.60
2018-08-19T15:53:18.504Z,9.87
2018-08-19T15:56:22.748Z,9.73
2018-08-19T15:59:27.027Z,9.90
2018-08-19T16:02:31.281Z,11.00
2018-08-19T16:05:35.504Z,10.27
2018-08-19T16:08:39.729Z,10.90
2018-08-19T16:11:44.361Z,11.00
2018-08-19T16:14:48.677Z,11.77
2018-08-19T16:17:54.747Z,19.13
2018-08-19T16:21:04.190Z,15.93
2018-08-19T16:24:09.022Z,15.50
2018-08-19T16:27:13.300Z,12.10
2018-08-19T16:30:17.609Z,12.83
2018-08-19T16:33:21.875Z,13.10
2018-08-19T16:36:26.118Z,10.77
2018-08-19T16:39:30.349Z,12.83
2018-08-19T16:42:34.584Z,14.07
2018-08-19T16:45:38.814Z,13.77
2018-08-19T16:48:43.037Z,10.80
2018-08-19T16:51:47.279Z,13.33
2018-08-19T16:54:51.533Z,15.43
2018-08-19T16:57:55.727Z,15.07
2018-08-19T17:00:59.974Z,15.93
2018-08-19T17:04:04.225Z,13.03
2018-08-19T17:07:10.857Z,13.50
2018-08-19T17:10:15.224Z,13.90
2018-08-19T17:13:19.346Z,14.97
2018-08-19T17:16:23.598Z,12.57
2018-08-19T17:19:27.881Z,12.43
2018-08-19T17:22:32.137Z,12.00
2018-08-19T17:25:36.367Z,13.40
2018-08-19T17:28:40.589Z,13.53
2018-08-19T17:31:44.800Z,15.80
2018-08-19T17:34:49.021Z,13.47
2018-08-19T17:37:54.685Z,15.93
2018-08-19T17:40:59.349Z,13.53
2018-08-19T17:44:03.859Z,14.83
2018-08-19T17:47:08.185Z,16.03
2018-08-19T17:50:17.056Z,15.00
2018-08-19T17:53:21.328Z,14.67
2018-08-19T17:56:25.614Z,13.57
2018-08-19T17:59:29.933Z,13.67
2018-08-19T18:02:34.150Z,20.17
2018-08-19T18:05:38.389Z,17.30
2018-08-19T18:08:47.905Z,20.43
2018-08-19T18:11:57.347Z,19.13
2018-08-19T18:15:02.250Z,21.67
2018-08-19T18:18:06.842Z,20.50
2018-08-19T18:21:10.923Z,19.40
2018-08-19T18:24:15.204Z,16.83
2018-08-19T18:27:20.332Z,16.37
2018-08-19T18:30:26.329Z,16.27
2018-08-19T18:33:30.592Z,21.23
2018-08-19T18:36:35.771Z,17.00
2018-08-19T18:39:43.509Z,17.90
2018-08-19T18:42:47.725Z,16.30
2018-08-19T18:45:52.041Z,16.43
2018-08-19T18:49:02.753Z,13.40
2018-08-19T18:52:12.310Z,16.70
2018-08-19T18:55:16.540Z,12.87
2018-08-19T18:58:20.776Z,11.97
2018-08-19T19:01:25.065Z,17.27
2018-08-19T19:04:29.421Z,20.60
2018-08-19T19:07:33.721Z,12.47
2018-08-19T19:10:38.677Z,14.70
2018-08-19T19:13:42.909Z,15.70
2018-08-19T19:16:50.924Z,11.80
2018-08-19T19:19:55.180Z,17.17
2018-08-19T19:23:03.336Z,15.73
2018-08-19T19:26:08.361Z,17.00
2018-08-19T19:29:20.857Z,16.70
2018-08-19T19:32:25.537Z,17.67
2018-08-19T19:35:30.313Z,19.53
2018-08-19T19:38:37.722Z,18.97
2018-08-19T19:41:41.929Z,20.17
2018-08-19T19:44:46.161Z,16.70
2018-08-19T19:47:50.420Z,15.97
2018-08-19T19:50:54.664Z,16.97
2018-08-19T19:53:58.932Z,19.83
2018-08-19T19:57:03.190Z,21.80
2018-08-19T20:00:07.426Z,17.83
2018-08-19T20:03:11.681Z,16.67
2018-08-19T20:06:15.937Z,18.93
2018-08-19T20:09:20.182Z,21.60
2018-08-19T20:12:29.784Z,25.20
2018-08-19T20:15:33.996Z,24.67
2018-08-19T20:18:38.233Z,24.10
2018-08-19T20:21:42.492Z,24.23
2018-08-19T20:24:47.129Z,21.27
2018-08-19T20:27:55.420Z,22.97
2018-08-19T20:30:59.675Z,21.10
2018-08-19T20:34:03.996Z,25.90
2018-08-19T20:37:08.205Z,22.70
2018-08-19T20:40:12.457Z,20.90
2018-08-19T20:43:20.649Z,23.13
2018-08-19T20:46:24.889Z,22.67
2018-08-19T20:49:29.131Z,19.43
2018-08-19T20:52:43.304Z,22.13
2018-08-19T20:55:48.048Z,24.90
2018-08-19T20:58:52.301Z,16.83
2018-08-19T21:01:56.569Z,17.07
2018-08-19T21:05:00.836Z,17.03
2018-08-19T21:08:11.192Z,19.60
2018-08-19T21:11:15.449Z,19.13
2018-08-19T21:14:19.712Z,21.47
2018-08-19T21:17:23.940Z,17.97
2018-08-19T21:20:28.189Z,23.30
2018-08-19T21:23:32.420Z,18.57
2018-08-19T21:26:36.640Z,17.37
2018-08-19T21:29:40.915Z,21.00
2018-08-19T21:32:45.140Z,23.33
2018-08-19T21:35:50.981Z,18.80
2018-08-19T21:38:55.201Z,21.07
2018-08-19T21:41:59.470Z,19.00
2018-08-19T21:45:03.713Z,17.83
2018-08-19T21:48:16.050Z,21.33
2018-08-19T21:51:20.284Z,21.43
2018-08-19T21:54:24.546Z,19.57
2018-08-19T21:57:28.792Z,17.30
2018-08-19T22:00:36.005Z,15.60
2018-08-19T22:03:45.478Z,18.77
2018-08-19T22:06:50.070Z,15.57
2018-08-19T22:09:54.342Z,17.37
2018-08-19T22:12:58.571Z,17.37
2018-08-19T22:16:02.817Z,16.37
2018-08-19T22:19:07.037Z,13.20
2018-08-19T22:22:11.273Z,12.97
2018-08-19T22:25:15.532Z,14.50
2018-08-19T22:28:19.766Z,16.13
2018-08-19T22:31:27.210Z,17.43
2018-08-19T22:34:31.428Z,16.80
2018-08-19T22:37:35.677Z,15.83
2018-08-19T22:40:39.924Z,21.40
2018-08-19T22:43:44.179Z,19.87
2018-08-19T22:46:48.442Z,16.50
2018-08-19T22:49:52.668Z,15.57
2018-08-19T22:52:56.952Z,17.90
2018-08-19T22:56:01.285Z,21.60
2018-08-19T22:59:05.543Z,16.90
2018-08-19T23:02:09.784Z,19.10
2018-08-19T23:05:14.026Z,20.33
2018-08-19T23:08:22.356Z,21.80
2018-08-19T23:11:33.579Z,18.73
2018-08-19T23:14:54.906Z,18.43
2018-08-19T23:17:59.181Z,21.73
2018-08-19T23:21:03.461Z,26.20
2018-08-19T23:24:07.749Z,25.27
2018-08-19T23:27:11.992Z,30.67
2018-08-19T23:30:16.241Z,22.57
2018-08-19T23:33:20.666Z,27.93
2018-08-19T23:36:24.902Z,26.27
2018-08-19T23:39:29.178Z,32.43
2018-08-19T23:42:33.414Z,32.30
2018-08-19T23:45:37.750Z,29.93
2018-08-19T23:48:41.968Z,35.47
2018-08-19T23:51:46.237Z,32.80
2018-08-19T23:54:50.469Z,23.00
2018-08-19T23:57:54.720Z,24.97
